Time;durP1;ratioP1;P1;durP2;ratioP2;P2;SDS_P1;SDS_P2;PMS_P1;PMS_P2;Temp;Humidity;BMP_temperature;BMP_pressure;BME280_temperature;BME280_humidity;BME280_pressure;Samples;Min_cycle;Max_cycle;Signal;HPM_P1;HPM_P2
2022/04/14 00:01:24;;;;;;;8.27;4.32;;;12.70;99.90;;;;;;5016592;28;20022;-87
2022/04/14 00:03:49;;;;;;;8.40;4.53;;;12.70;99.90;;;;;;5016367;28;20033;-87
2022/04/14 00:06:15;;;;;;;7.85;5.43;;;12.70;99.90;;;;;;5015779;28;20036;-86
2022/04/14 00:08:43;;;;;;;6.13;4.72;;;12.60;99.90;;;;;;5014823;28;20117;-84
2022/04/14 00:11:10;;;;;;;7.28;4.75;;;12.50;99.90;;;;;;5013419;28;20034;-86
2022/04/14 00:13:36;;;;;;;7.45;4.40;;;12.50;99.90;;;;;;5012699;28;20120;-86
2022/04/14 00:16:01;;;;;;;14.63;6.90;;;12.60;99.90;;;;;;5013215;28;20072;-85
2022/04/14 00:18:27;;;;;;;11.10;6.88;;;12.60;99.90;;;;;;5011985;28;20029;-82
2022/04/14 00:20:52;;;;;;;12.25;6.53;;;12.60;99.90;;;;;;5014480;28;20022;-86
2022/04/14 00:23:18;;;;;;;7.82;5.93;;;12.60;99.90;;;;;;5014904;28;20165;-85
2022/04/14 00:25:44;;;;;;;10.00;6.28;;;12.60;99.90;;;;;;5014318;28;20105;-86
2022/04/14 00:28:09;;;;;;;9.02;6.47;;;12.50;99.90;;;;;;5015274;28;20517;-85
2022/04/14 00:30:35;;;;;;;11.70;7.70;;;12.50;99.90;;;;;;5016073;28;20038;-88
2022/04/14 00:33:01;;;;;;;6.80;5.82;;;12.50;99.90;;;;;;5028011;28;20014;-78
2022/04/14 00:35:27;;;;;;;9.52;6.30;;;12.40;99.90;;;;;;5032124;28;20034;-86
2022/04/14 00:37:53;;;;;;;11.82;6.95;;;12.40;99.90;;;;;;5015263;28;20029;-87
2022/04/14 00:40:18;;;;;;;13.45;7.55;;;12.50;99.90;;;;;;5019538;28;20405;-88
2022/04/14 00:42:45;;;;;;;9.93;6.93;;;12.40;99.90;;;;;;5016828;28;20034;-86
2022/04/14 00:45:10;;;;;;;10.70;7.82;;;12.40;99.90;;;;;;5017591;28;20462;-85
2022/04/14 00:47:38;;;;;;;12.52;8.77;;;12.40;99.90;;;;;;5018158;28;20097;-86
2022/04/14 00:50:04;;;;;;;13.73;8.77;;;12.40;99.90;;;;;;5017914;28;20108;-87
2022/04/14 00:52:30;;;;;;;13.90;8.77;;;12.40;99.90;;;;;;5018204;28;20394;-83
2022/04/14 00:54:56;;;;;;;11.30;8.13;;;12.40;99.90;;;;;;5018074;28;20034;-88
2022/04/14 00:57:21;;;;;;;11.43;8.52;;;12.30;99.90;;;;;;5019037;28;20136;-86
2022/04/14 00:59:47;;;;;;;11.32;8.43;;;12.30;99.90;;;;;;5018836;28;20030;-87
2022/04/14 01:02:13;;;;;;;12.32;8.00;;;12.30;99.90;;;;;;5019246;28;20030;-86
2022/04/14 01:04:40;;;;;;;12.95;8.68;;;12.30;99.90;;;;;;5018346;28;20065;-84
2022/04/14 01:07:07;;;;;;;12.60;8.90;;;12.20;99.90;;;;;;5018579;28;20029;-86
2022/04/14 01:09:33;;;;;;;11.95;8.02;;;12.20;99.90;;;;;;5019899;28;20026;-85
2022/04/14 01:12:00;;;;;;;9.63;7.32;;;12.20;99.90;;;;;;5018324;28;20033;-88
2022/04/14 01:14:25;;;;;;;12.05;7.93;;;12.20;99.90;;;;;;5019057;28;20057;-85
2022/04/14 01:16:51;;;;;;;17.83;10.25;;;12.20;99.90;;;;;;5018754;28;20041;-86
2022/04/14 01:19:17;;;;;;;11.38;8.68;;;12.20;99.90;;;;;;5018008;28;20117;-85
2022/04/14 01:21:48;;;;;;;14.77;9.90;;;12.20;99.90;;;;;;5017820;28;20057;-82
2022/04/14 01:24:14;;;;;;;13.73;9.57;;;12.20;99.90;;;;;;5018240;28;20240;-85
2022/04/14 01:26:40;;;;;;;12.40;9.35;;;12.10;99.90;;;;;;5017841;28;20056;-85
2022/04/14 01:29:06;;;;;;;13.77;9.45;;;12.20;99.90;;;;;;5017475;28;20065;-83
2022/04/14 01:31:32;;;;;;;14.13;10.02;;;12.10;99.90;;;;;;5017740;28;20176;-85
2022/04/14 01:33:57;;;;;;;13.73;9.65;;;12.00;99.90;;;;;;5017842;28;20026;-85
2022/04/14 01:36:23;;;;;;;19.20;11.82;;;12.10;99.90;;;;;;5018164;28;20026;-84
2022/04/14 01:38:49;;;;;;;14.30;11.00;;;12.10;99.90;;;;;;5017568;28;20402;-85
2022/04/14 01:41:15;;;;;;;20.13;11.48;;;12.20;99.90;;;;;;5017468;28;20048;-86
2022/04/14 01:43:43;;;;;;;17.13;11.43;;;12.10;99.90;;;;;;5019237;28;20045;-86
2022/04/14 01:46:09;;;;;;;14.75;11.00;;;12.00;99.90;;;;;;5017126;28;20044;-87
2022/04/14 01:48:38;;;;;;;17.92;11.77;;;12.10;99.90;;;;;;5016116;28;20447;-86
2022/04/14 01:51:04;;;;;;;21.45;13.18;;;12.00;99.90;;;;;;5017311;28;20025;-85
2022/04/14 01:53:30;;;;;;;16.45;11.43;;;12.00;99.90;;;;;;5017710;28;20469;-86
2022/04/14 01:55:55;;;;;;;15.32;10.52;;;12.00;99.90;;;;;;5016777;28;20041;-83
2022/04/14 01:58:21;;;;;;;13.18;10.45;;;12.00;99.90;;;;;;5016574;28;20033;-88
2022/04/14 02:00:47;;;;;;;13.18;9.93;;;11.90;99.90;;;;;;5015718;28;20172;-88
2022/04/14 02:03:12;;;;;;;14.52;9.15;;;11.90;99.90;;;;;;5016618;28;20044;-87
2022/04/14 02:05:38;;;;;;;17.17;10.77;;;11.80;99.90;;;;;;5016757;28;20025;-85
2022/04/14 02:08:04;;;;;;;21.65;13.75;;;11.80;99.90;;;;;;5017635;28;20032;-88
2022/04/14 02:10:29;;;;;;;16.55;12.35;;;11.80;99.90;;;;;;5017465;28;20030;-87
2022/04/14 02:12:55;;;;;;;19.90;11.98;;;11.80;99.90;;;;;;5016488;28;20036;-87
2022/04/14 02:15:21;;;;;;;22.55;11.95;;;11.70;99.90;;;;;;5017745;28;20022;-86
2022/04/14 02:17:49;;;;;;;19.48;13.02;;;11.80;99.90;;;;;;5017635;28;20125;-82
2022/04/14 02:20:15;;;;;;;21.73;12.75;;;11.90;99.90;;;;;;5018834;28;20025;-87
2022/04/14 02:22:41;;;;;;;18.02;11.98;;;11.80;99.90;;;;;;5018111;28;20030;-84
2022/04/14 02:25:08;;;;;;;23.15;13.40;;;11.80;99.90;;;;;;5016721;28;20034;-83
2022/04/14 02:27:33;;;;;;;21.25;13.38;;;11.70;99.90;;;;;;5017253;28;20024;-86
2022/04/14 02:29:59;;;;;;;23.88;12.55;;;11.70;99.90;;;;;;5015796;28;20029;-83
2022/04/14 02:32:26;;;;;;;22.35;13.60;;;11.70;99.90;;;;;;5018391;28;20029;-85
2022/04/14 02:34:51;;;;;;;17.52;11.98;;;11.80;99.90;;;;;;5018864;28;20026;-84
2022/04/14 02:37:17;;;;;;;18.88;12.27;;;11.80;99.90;;;;;;5019809;28;20037;-84
2022/04/14 02:39:42;;;;;;;19.30;11.98;;;11.80;99.90;;;;;;5018908;28;20022;-84
2022/04/14 02:42:08;;;;;;;15.98;11.00;;;11.80;99.90;;;;;;5026071;28;20013;-80
2022/04/14 02:44:33;;;;;;;17.63;11.00;;;11.70;99.90;;;;;;5041244;28;20041;-79
2022/04/14 02:46:59;;;;;;;20.13;12.63;;;11.80;99.90;;;;;;5038513;28;20036;-84
2022/04/14 02:49:26;;;;;;;18.60;12.00;;;11.80;99.90;;;;;;5038136;28;20469;-86
2022/04/14 02:51:52;;;;;;;17.70;11.73;;;11.80;99.90;;;;;;5035340;28;20450;-85
2022/04/14 02:54:18;;;;;;;18.88;11.65;;;11.80;99.90;;;;;;5035258;28;20473;-85
2022/04/14 02:56:43;;;;;;;20.33;10.57;;;11.80;99.90;;;;;;5035735;28;20029;-86
2022/04/14 02:59:09;;;;;;;19.50;12.02;;;11.80;99.90;;;;;;5035357;28;20459;-85
2022/04/14 03:01:34;;;;;;;15.55;10.32;;;11.80;99.90;;;;;;5036795;28;20032;-85
2022/04/14 03:04:00;;;;;;;16.30;10.77;;;11.80;99.90;;;;;;5051841;28;20026;-82
2022/04/14 03:06:26;;;;;;;17.70;11.80;;;11.80;99.90;;;;;;5048483;28;20033;-85
2022/04/14 03:08:51;;;;;;;17.55;12.55;;;11.70;99.90;;;;;;5036292;28;20026;-86
2022/04/14 03:11:17;;;;;;;22.58;12.90;;;11.80;99.90;;;;;;5035729;28;20047;-86
2022/04/14 03:13:42;;;;;;;19.52;11.77;;;11.70;99.90;;;;;;5036841;28;20039;-84
2022/04/14 03:16:08;;;;;;;19.45;12.63;;;11.70;99.90;;;;;;5035724;28;20029;-86
2022/04/14 03:18:34;;;;;;;19.67;13.07;;;11.70;99.90;;;;;;5035574;28;20033;-86
2022/04/14 03:21:01;;;;;;;24.67;14.77;;;11.70;99.90;;;;;;5035824;28;20263;-86
2022/04/14 03:23:27;;;;;;;20.13;12.82;;;11.80;99.90;;;;;;5035697;28;20136;-86
2022/04/14 03:25:53;;;;;;;24.60;15.07;;;11.70;99.90;;;;;;5035820;28;20140;-85
2022/04/14 03:28:19;;;;;;;24.25;15.63;;;11.70;99.90;;;;;;5036160;28;20026;-83
2022/04/14 03:30:45;;;;;;;25.25;15.43;;;11.70;99.90;;;;;;5035576;28;20093;-84
2022/04/14 03:33:11;;;;;;;28.17;16.38;;;11.70;99.90;;;;;;5034780;28;20026;-84
2022/04/14 03:35:36;;;;;;;25.35;15.55;;;11.70;99.90;;;;;;5034816;28;20025;-87
2022/04/14 03:38:02;;;;;;;27.30;16.73;;;11.70;99.90;;;;;;5032609;28;20497;-87
2022/04/14 03:40:28;;;;;;;31.92;17.70;;;11.70;99.90;;;;;;5033725;28;20346;-87
2022/04/14 03:42:53;;;;;;;26.50;16.85;;;11.70;99.90;;;;;;5033613;28;20025;-85
2022/04/14 03:45:19;;;;;;;32.30;18.10;;;11.70;99.90;;;;;;5022304;28;20029;-83
2022/04/14 03:47:45;;;;;;;30.83;17.27;;;11.70;99.90;;;;;;5014388;28;20025;-87
2022/04/14 03:50:10;;;;;;;27.90;16.98;;;11.70;99.90;;;;;;5013609;28;20375;-87
2022/04/14 03:52:36;;;;;;;32.65;18.55;;;11.60;99.90;;;;;;5013312;28;20022;-86
2022/04/14 03:55:02;;;;;;;31.20;17.80;;;11.50;99.90;;;;;;5013504;28;20112;-84
2022/04/14 03:57:28;;;;;;;28.65;18.40;;;11.50;99.90;;;;;;5012988;28;20100;-83
2022/04/14 03:59:53;;;;;;;31.95;18.48;;;11.60;99.90;;;;;;5013248;28;20034;-85
2022/04/14 04:02:19;;;;;;;31.70;18.77;;;11.60;99.90;;;;;;5013662;28;20080;-87
2022/04/14 04:04:44;;;;;;;31.60;17.95;;;11.60;99.90;;;;;;5015292;28;20034;-86
2022/04/14 04:07:10;;;;;;;28.80;17.38;;;11.60;99.90;;;;;;5014013;28;20022;-86
2022/04/14 04:09:38;;;;;;;26.70;16.58;;;11.70;99.90;;;;;;5013161;28;20026;-82
2022/04/14 04:12:04;;;;;;;24.83;15.93;;;11.60;99.90;;;;;;5016077;28;20682;-85
2022/04/14 04:14:30;;;;;;;30.10;17.38;;;11.60;99.90;;;;;;5016128;28;20022;-85
2022/04/14 04:16:56;;;;;;;27.10;17.23;;;11.60;99.90;;;;;;5018963;28;20181;-87
2022/04/14 04:19:21;;;;;;;29.30;16.50;;;11.50;99.90;;;;;;5021647;28;20088;-86
2022/04/14 04:21:47;;;;;;;26.17;16.42;;;11.60;99.90;;;;;;5017658;28;20474;-85
2022/04/14 04:24:13;;;;;;;29.30;17.33;;;11.50;99.90;;;;;;5017376;28;20398;-86
2022/04/14 04:26:38;;;;;;;32.20;18.27;;;11.50;99.90;;;;;;5019680;28;20477;-83
2022/04/14 04:29:04;;;;;;;33.00;18.45;;;11.50;99.90;;;;;;5017681;28;20110;-86
2022/04/14 04:31:30;;;;;;;35.05;18.92;;;11.50;99.90;;;;;;5016749;28;20057;-84
2022/04/14 04:33:55;;;;;;;26.48;16.40;;;11.50;99.90;;;;;;5017477;28;20038;-85
2022/04/14 04:36:21;;;;;;;26.80;17.90;;;11.50;99.90;;;;;;5016519;28;20034;-84
2022/04/14 04:38:47;;;;;;;28.25;17.60;;;11.40;99.90;;;;;;5018059;28;20037;-82
2022/04/14 04:41:13;;;;;;;29.05;17.55;;;11.40;99.90;;;;;;5018157;28;20032;-84
2022/04/14 04:43:38;;;;;;;32.38;18.80;;;11.40;99.90;;;;;;5018183;28;20022;-87
2022/04/14 04:46:04;;;;;;;32.00;18.73;;;11.50;99.90;;;;;;5034554;28;20071;-83
2022/04/14 04:48:32;;;;;;;31.00;18.10;;;11.40;99.90;;;;;;5037989;28;20026;-85
2022/04/14 04:50:58;;;;;;;27.73;16.65;;;11.40;99.90;;;;;;5039826;28;20040;-84
2022/04/14 04:53:23;;;;;;;22.98;15.63;;;11.30;99.90;;;;;;5057359;28;20101;-81
2022/04/14 04:55:49;;;;;;;25.73;15.20;;;11.30;99.90;;;;;;5045366;28;20034;-85
2022/04/14 04:58:15;;;;;;;27.08;15.98;;;11.30;99.90;;;;;;5038717;28;20083;-83
2022/04/14 05:00:41;;;;;;;27.80;18.27;;;11.30;99.90;;;;;;5038264;28;20025;-85
2022/04/14 05:03:10;;;;;;;28.55;17.27;;;11.30;99.90;;;;;;5037623;28;20500;-84
2022/04/14 05:05:38;;;;;;;28.42;17.02;;;11.30;99.90;;;;;;5038354;28;20021;-85
2022/04/14 05:08:07;;;;;;;28.50;17.48;;;11.30;99.90;;;;;;5037613;28;20025;-82
2022/04/14 05:10:33;;;;;;;30.38;18.45;;;11.30;99.90;;;;;;5037888;28;20450;-84
2022/04/14 05:12:59;;;;;;;38.97;20.77;;;11.40;99.90;;;;;;5039815;28;20473;-84
2022/04/14 05:15:24;;;;;;;34.88;20.25;;;11.30;99.90;;;;;;5040115;28;20040;-83
2022/04/14 05:17:50;;;;;;;32.50;19.20;;;11.40;99.90;;;;;;5039701;28;20101;-82
2022/04/14 05:20:16;;;;;;;33.47;20.13;;;11.40;99.90;;;;;;5040983;28;20024;-82
2022/04/14 05:22:42;;;;;;;32.92;21.30;;;11.40;99.90;;;;;;5040993;28;20056;-84
2022/04/14 05:25:08;;;;;;;35.33;22.02;;;11.50;99.90;;;;;;5040272;28;20116;-83
2022/04/14 05:27:34;;;;;;;40.28;22.40;;;11.50;99.90;;;;;;5039114;28;20057;-81
2022/04/14 05:30:00;;;;;;;33.17;19.75;;;11.50;99.90;;;;;;5039261;28;20049;-86
2022/04/14 05:32:25;;;;;;;28.52;17.80;;;11.50;99.90;;;;;;5042191;28;20026;-85
2022/04/14 05:34:51;;;;;;;27.88;16.40;;;11.50;99.90;;;;;;5039496;28;20492;-85
2022/04/14 05:37:17;;;;;;;25.70;16.40;;;11.60;99.90;;;;;;5038987;28;20032;-84
2022/04/14 05:39:42;;;;;;;24.40;16.08;;;11.50;99.90;;;;;;5039206;28;20116;-82
2022/04/14 05:42:08;;;;;;;29.75;17.83;;;11.60;99.90;;;;;;5039304;28;20025;-83
2022/04/14 05:44:33;;;;;;;33.60;20.35;;;11.60;99.90;;;;;;5033527;28;20303;-82
2022/04/14 05:46:59;;;;;;;31.42;19.73;;;11.60;99.90;;;;;;5020732;28;20040;-85
2022/04/14 05:49:26;;;;;;;32.08;20.02;;;11.70;99.90;;;;;;5021482;28;20072;-86
2022/04/14 05:51:51;;;;;;;31.10;18.50;;;11.70;99.90;;;;;;5017110;28;20084;-85
2022/04/14 05:54:17;;;;;;;31.55;20.25;;;11.80;99.90;;;;;;5019926;28;20022;-83
2022/04/14 05:56:43;;;;;;;37.22;21.40;;;11.70;99.90;;;;;;5019036;28;20029;-85
2022/04/14 05:59:16;;;;;;;37.70;21.45;;;11.80;99.90;;;;;;5018852;28;20026;-86
2022/04/14 06:01:45;;;;;;;30.27;19.02;;;11.80;99.90;;;;;;5020987;28;20370;-84
2022/04/14 06:04:13;;;;;;;33.72;20.27;;;11.80;99.90;;;;;;5019780;28;20270;-86
2022/04/14 06:06:39;;;;;;;33.92;20.52;;;11.90;99.90;;;;;;5019692;28;20021;-85
2022/04/14 06:09:04;;;;;;;33.10;21.35;;;11.90;99.90;;;;;;5020398;28;20093;-85
2022/04/14 06:11:30;;;;;;;29.33;18.63;;;12.00;99.90;;;;;;5021424;28;20091;-85
2022/04/14 06:13:57;;;;;;;36.10;20.52;;;12.00;99.90;;;;;;5024247;28;20045;-82
2022/04/14 06:16:23;;;;;;;32.42;20.70;;;12.10;99.90;;;;;;5027143;28;20026;-84
2022/04/14 06:18:50;;;;;;;39.08;22.35;;;12.20;99.90;;;;;;5019704;28;20028;-85
2022/04/14 06:21:16;;;;;;;33.70;21.67;;;12.20;99.90;;;;;;5025864;28;20041;-81
2022/04/14 06:23:42;;;;;;;31.15;19.70;;;12.20;99.90;;;;;;5034300;28;20053;-81
2022/04/14 06:26:08;;;;;;;27.58;17.20;;;12.30;99.90;;;;;;5018221;28;20029;-83
2022/04/14 06:28:34;;;;;;;34.55;20.70;;;12.40;99.90;;;;;;5018050;28;20030;-85
2022/04/14 06:31:01;;;;;;;27.95;17.52;;;12.40;99.90;;;;;;5015583;28;20397;-83
2022/04/14 06:33:30;;;;;;;31.10;19.05;;;12.40;99.90;;;;;;5016752;28;20029;-84
2022/04/14 06:35:56;;;;;;;30.48;19.15;;;12.40;99.90;;;;;;5016876;28;20034;-84
2022/04/14 06:38:24;;;;;;;37.28;22.63;;;12.40;99.90;;;;;;5017215;28;20116;-84
2022/04/14 06:40:50;;;;;;;42.13;25.83;;;12.50;99.90;;;;;;5017594;28;20026;-83
2022/04/14 06:43:16;;;;;;;38.55;25.05;;;12.50;99.90;;;;;;5016960;28;20026;-82
2022/04/14 06:45:42;;;;;;;44.22;24.67;;;12.50;99.90;;;;;;5032795;28;20056;-82
2022/04/14 06:48:08;;;;;;;36.63;21.85;;;12.50;99.90;;;;;;5036712;28;20121;-85
2022/04/14 06:50:33;;;;;;;40.22;23.92;;;12.60;99.90;;;;;;5037987;28;20093;-83
2022/04/14 06:52:59;;;;;;;43.78;27.52;;;12.70;99.90;;;;;;5037020;28;20063;-81
2022/04/14 06:55:25;;;;;;;41.42;25.67;;;12.80;99.90;;;;;;5036842;28;20051;-85
2022/04/14 06:57:51;;;;;;;44.90;25.95;;;12.80;99.90;;;;;;5035878;28;20025;-83
2022/04/14 07:00:17;;;;;;;46.33;27.75;;;12.90;99.90;;;;;;5050625;28;20028;-80
2022/04/14 07:02:47;;;;;;;49.47;29.40;;;13.00;99.90;;;;;;5047606;28;20029;-81
2022/04/14 07:05:17;;;;;;;51.58;29.77;;;13.10;99.90;;;;;;5036142;28;20472;-86
2022/04/14 07:07:44;;;;;;;46.80;29.35;;;13.20;99.90;;;;;;5037427;28;20021;-85
2022/04/14 07:10:13;;;;;;;59.88;32.83;;;13.40;99.90;;;;;;5036941;28;20025;-83
2022/04/14 07:12:39;;;;;;;50.78;32.05;;;13.50;99.90;;;;;;5034273;28;20026;-83
2022/04/14 07:15:06;;;;;;;57.10;32.10;;;13.70;99.90;;;;;;5035185;28;20029;-83
2022/04/14 07:17:33;;;;;;;61.58;34.55;;;13.90;99.90;;;;;;5035726;28;20036;-84
2022/04/14 07:19:59;;;;;;;49.75;30.58;;;14.00;99.90;;;;;;5037722;28;20079;-83
2022/04/14 07:22:26;;;;;;;55.85;32.63;;;14.20;99.90;;;;;;5035189;28;20033;-83
2022/04/14 07:24:52;;;;;;;60.75;33.85;;;14.40;99.90;;;;;;5036311;28;20025;-84
2022/04/14 07:27:20;;;;;;;54.20;32.92;;;14.60;99.90;;;;;;5036591;28;20025;-82
2022/04/14 07:29:47;;;;;;;56.28;32.03;;;14.70;99.90;;;;;;5036403;28;20404;-83
2022/04/14 07:32:14;;;;;;;53.20;32.95;;;14.80;99.90;;;;;;5039250;28;20091;-84
2022/04/14 07:34:40;;;;;;;58.40;35.05;;;14.80;99.90;;;;;;5038314;28;20022;-82
2022/04/14 07:37:06;;;;;;;56.97;33.75;;;14.90;99.90;;;;;;5037915;28;20032;-84
2022/04/14 07:39:32;;;;;;;61.03;35.75;;;15.00;99.90;;;;;;5037911;28;20515;-83
2022/04/14 07:41:57;;;;;;;61.17;36.47;;;15.00;99.90;;;;;;5037698;28;20128;-86
2022/04/14 07:44:23;;;;;;;58.42;34.65;;;15.10;99.90;;;;;;5038002;28;20224;-84
2022/04/14 07:46:51;;;;;;;62.00;36.15;;;15.10;99.90;;;;;;5037502;28;20025;-85
2022/04/14 07:49:17;;;;;;;64.95;38.90;;;15.20;99.90;;;;;;5038349;28;20021;-83
2022/04/14 07:51:42;;;;;;;60.10;36.05;;;15.10;99.90;;;;;;5038142;28;20499;-85
2022/04/14 07:54:08;;;;;;;57.20;35.28;;;15.20;99.90;;;;;;5038448;28;20052;-81
2022/04/14 07:56:34;;;;;;;66.32;38.08;;;15.10;99.90;;;;;;5037789;28;20116;-86
2022/04/14 07:59:01;;;;;;;60.22;35.78;;;15.10;99.90;;;;;;5038400;28;20021;-82
2022/04/14 08:01:29;;;;;;;66.32;39.90;;;14.90;99.90;;;;;;5039680;28;20088;-83
2022/04/14 08:03:55;;;;;;;71.80;39.42;;;14.80;99.90;;;;;;5037952;28;20044;-84
2022/04/14 08:06:25;;;;;;;67.38;39.47;;;14.70;99.90;;;;;;5038269;28;20026;-81
2022/04/14 08:08:51;;;;;;;68.55;39.50;;;14.60;99.90;;;;;;5037022;28;20021;-84
2022/04/14 08:11:17;;;;;;;65.07;39.15;;;14.60;99.90;;;;;;5037676;28;20029;-84
2022/04/14 08:13:43;;;;;;;71.00;39.80;;;14.50;99.90;;;;;;5038207;28;20041;-80
2022/04/14 08:16:11;;;;;;;74.03;40.95;;;14.60;99.90;;;;;;5037759;28;20029;-84
2022/04/14 08:18:39;;;;;;;72.40;38.85;;;14.50;99.90;;;;;;5037893;28;20030;-82
2022/04/14 08:21:05;;;;;;;69.32;39.33;;;14.50;99.90;;;;;;5037923;28;20030;-84
2022/04/14 08:23:32;;;;;;;67.90;39.80;;;14.60;99.90;;;;;;5038970;28;20030;-85
2022/04/14 08:25:57;;;;;;;67.80;39.05;;;14.90;99.90;;;;;;5038005;28;20331;-84
2022/04/14 08:28:23;;;;;;;64.18;39.55;;;15.30;99.90;;;;;;5042029;23;20048;-80
2022/04/14 08:30:49;;;;;;;61.42;38.13;;;15.80;99.90;;;;;;5034850;28;20159;-79
2022/04/14 08:33:20;;;;;;;62.50;39.75;;;16.40;99.90;;;;;;5035056;28;20480;-80
2022/04/14 08:35:46;;;;;;;64.43;38.22;;;16.90;99.90;;;;;;5050628;28;20026;-78
2022/04/14 08:38:12;;;;;;;61.35;37.40;;;17.10;99.90;;;;;;5034680;28;20125;-79
2022/04/14 08:40:41;;;;;;;66.40;38.63;;;17.20;99.90;;;;;;5035050;28;20038;-78
2022/04/14 08:43:08;;;;;;;68.72;39.28;;;16.80;99.90;;;;;;5034941;28;20029;-77
2022/04/14 08:45:36;;;;;;;67.18;42.08;;;16.70;99.90;;;;;;5048932;28;20017;-76
2022/04/14 08:48:03;;;;;;;66.22;40.80;;;17.00;99.90;;;;;;5055793;28;20089;-78
2022/04/14 08:50:30;;;;;;;73.07;44.70;;;17.30;99.90;;;;;;5055308;28;20090;-76
2022/04/14 08:52:56;;;;;;;64.90;40.50;;;18.00;99.90;;;;;;5055400;28;20037;-78
2022/04/14 08:55:23;;;;;;;65.93;42.38;;;18.70;99.90;;;;;;5054837;28;20018;-77
2022/04/14 08:57:49;;;;;;;63.03;39.13;;;19.40;99.90;;;;;;5057016;28;20025;-76
2022/04/14 09:00:16;;;;;;;60.58;37.47;;;19.90;99.90;;;;;;5058380;28;20013;-77
2022/04/14 09:02:45;;;;;;;60.60;37.92;;;20.00;99.90;;;;;;5055895;28;20429;-77
2022/04/14 09:05:13;;;;;;;57.15;34.80;;;20.40;99.90;;;;;;5055331;28;20021;-79
2022/04/14 09:07:39;;;;;;;52.55;34.55;;;20.70;99.90;;;;;;5054963;28;20025;-78
2022/04/14 09:10:06;;;;;;;53.55;35.80;;;21.00;99.90;;;;;;5056472;28;20021;-77
2022/04/14 09:12:32;;;;;;;52.13;33.72;;;20.90;99.90;;;;;;5055687;28;20024;-78
2022/04/14 09:15:00;;;;;;;52.28;33.75;;;20.40;99.90;;;;;;5055844;28;20029;-79
2022/04/14 09:17:27;;;;;;;47.25;32.33;;;20.20;99.90;;;;;;5057475;28;20266;-78
2022/04/14 09:19:52;;;;;;;44.33;30.67;;;20.50;99.90;;;;;;5056564;28;20468;-78
2022/04/14 09:22:18;;;;;;;46.10;31.92;;;20.80;99.90;;;;;;5056881;28;20028;-79
2022/04/14 09:24:49;;;;;;;46.42;31.15;;;21.10;99.90;;;;;;5056731;28;20025;-79
2022/04/14 09:27:27;;;;;;;39.67;28.75;;;20.80;99.90;;;;;;5056664;28;20527;-76
2022/04/14 09:29:59;;;;;;;36.38;24.98;;;20.40;99.90;;;;;;5054900;28;20044;-77
2022/04/14 09:32:32;;;;;;;32.33;22.40;;;19.90;99.90;;;;;;5054447;28;20124;-78
2022/04/14 09:35:05;;;;;;;35.55;23.65;;;19.50;99.90;;;;;;5057031;28;20052;-78
2022/04/14 09:37:32;;;;;;;36.20;23.27;;;19.60;99.90;;;;;;5053467;28;20056;-77
2022/04/14 09:40:05;;;;;;;33.83;22.85;;;19.30;99.90;;;;;;5052875;28;20480;-77
2022/04/14 09:42:36;;;;;;;21.95;16.35;;;19.20;99.90;;;;;;5053821;28;20213;-78
2022/04/14 09:45:20;;;;;;;20.23;14.27;;;19.60;99.90;;;;;;5045214;28;20025;-78
2022/04/14 09:47:53;;;;;;;32.33;22.83;;;20.40;99.90;;;;;;5036462;28;20032;-78
2022/04/14 09:50:39;;;;;;;27.95;20.27;;;21.20;99.90;;;;;;5036680;28;20100;-79
2022/04/14 09:53:08;;;;;;;25.45;18.15;;;21.90;99.90;;;;;;5035773;28;20050;-79
2022/04/14 09:55:42;;;;;;;21.08;14.93;;;22.00;98.80;;;;;;5035823;28;20089;-78
2022/04/14 09:58:12;;;;;;;22.80;15.73;;;22.10;96.90;;;;;;5035881;28;20014;-79
2022/04/14 10:00:37;;;;;;;21.88;16.30;;;21.60;93.60;;;;;;5036369;28;20056;-77
2022/04/14 10:03:12;;;;;;;22.00;15.35;;;20.70;94.60;;;;;;5037031;28;20029;-80
2022/04/14 10:05:39;;;;;;;25.80;14.35;;;19.90;98.40;;;;;;5034664;28;20075;-79
2022/04/14 10:08:08;;;;;;;18.33;14.18;;;19.40;99.90;;;;;;5036293;28;20104;-81
2022/04/14 10:10:42;;;;;;;23.67;16.33;;;19.90;99.90;;;;;;5041758;28;20025;-79
2022/04/14 10:13:12;;;;;;;22.52;15.50;;;20.00;99.90;;;;;;5035569;28;20045;-79
2022/04/14 10:15:43;;;;;;;25.55;16.10;;;19.90;99.90;;;;;;5033969;28;20033;-79
2022/04/14 10:18:17;;;;;;;19.38;13.05;;;20.40;99.90;;;;;;5035376;28;20032;-80
2022/04/14 10:20:46;;;;;;;19.83;13.32;;;21.00;96.80;;;;;;5037476;28;20030;-82
2022/04/14 10:23:15;;;;;;;20.33;14.65;;;21.80;97.00;;;;;;5038393;28;20030;-80
2022/04/14 10:25:42;;;;;;;18.40;14.02;;;21.90;87.40;;;;;;5034633;28;20392;-76
2022/04/14 10:28:16;;;;;;;19.08;13.82;;;21.60;89.50;;;;;;5033985;28;20029;-78
2022/04/14 10:30:58;;;;;;;22.52;14.15;;;20.90;92.10;;;;;;5034464;28;20022;-78
2022/04/14 10:33:24;;;;;;;21.73;15.88;;;20.80;93.50;;;;;;5035581;28;20034;-78
2022/04/14 10:35:51;;;;;;;18.30;13.80;;;21.10;93.00;;;;;;5036032;28;20021;-77
2022/04/14 10:38:30;;;;;;;19.70;13.65;;;20.40;90.50;;;;;;5034141;28;20037;-78
2022/04/14 10:41:15;;;;;;;21.08;14.77;;;20.00;92.20;;;;;;5035112;28;20400;-75
2022/04/14 10:43:43;;;;;;;18.40;14.07;;;19.90;93.50;;;;;;5034753;28;20397;-78
2022/04/14 10:46:09;;;;;;;19.88;13.05;;;19.50;93.50;;;;;;5071296;28;20025;-77
2022/04/14 10:48:39;;;;;;;17.30;13.00;;;19.40;94.50;;;;;;5072765;28;20119;-76
2022/04/14 10:51:28;;;;;;;20.58;14.98;;;19.40;93.90;;;;;;5066216;28;20021;-78
2022/04/14 10:53:59;;;;;;;26.38;18.00;;;19.30;93.30;;;;;;5055018;28;20032;-76
2022/04/14 10:56:33;;;;;;;25.40;18.48;;;19.20;94.50;;;;;;5053673;28;20055;-76
2022/04/14 10:59:00;;;;;;;23.25;16.90;;;18.90;95.10;;;;;;5053277;28;20487;-77
2022/04/14 11:01:48;;;;;;;24.55;17.63;;;18.80;97.20;;;;;;5053520;28;20061;-75
2022/04/14 11:04:26;;;;;;;24.45;16.85;;;18.60;99.40;;;;;;5056117;28;20211;-78
2022/04/14 11:06:57;;;;;;;22.05;15.40;;;19.30;99.90;;;;;;5056488;28;20017;-77
2022/04/14 11:09:59;;;;;;;20.63;15.73;;;20.40;97.70;;;;;;5055880;28;20052;-79
2022/04/14 11:12:41;;;;;;;22.88;17.50;;;21.20;91.70;;;;;;5055358;28;20346;-78
2022/04/14 11:15:10;;;;;;;24.35;17.55;;;21.00;85.90;;;;;;5053751;28;20060;-77
2022/04/14 11:20:30;;;;;;;17.80;13.35;;;19.60;93.70;;;;;;5041083;28;20553;-76
2022/04/14 11:23:08;;;;;;;19.50;15.48;;;19.10;92.30;;;;;;5053577;28;20037;-75
2022/04/14 11:25:49;;;;;;;23.20;17.00;;;18.70;94.80;;;;;;5054974;28;20047;-77
2022/04/14 11:28:19;;;;;;;23.83;17.27;;;18.40;98.70;;;;;;5053190;28;20025;-76
2022/04/14 11:30:46;;;;;;;17.35;14.32;;;18.50;99.90;;;;;;5054496;28;20021;-76
2022/04/14 11:33:30;;;;;;;14.27;9.90;;;19.00;97.00;;;;;;5054324;28;20017;-78
2022/04/14 11:36:16;;;;;;;12.90;10.43;;;19.40;90.40;;;;;;5053253;28;20353;-76
2022/04/14 11:38:52;;;;;;;13.75;9.95;;;19.60;90.00;;;;;;5052706;28;20028;-77
2022/04/14 11:41:36;;;;;;;;;;;19.80;88.50;;;;;;5054439;28;20021;-77
2022/04/14 11:44:23;;;;;;;17.60;13.82;;;20.10;88.10;;;;;;5052681;28;19944;-77
2022/04/14 11:46:52;;;;;;;22.02;14.35;;;19.80;89.30;;;;;;5005459;28;20038;-76
2022/04/14 11:49:21;;;;;;;21.55;15.85;;;19.30;90.20;;;;;;5022994;28;20029;-78
2022/04/14 11:51:51;;;;;;;18.48;14.10;;;18.90;93.10;;;;;;5021709;28;20022;-77
2022/04/14 11:54:35;;;;;;;17.58;14.35;;;19.20;96.50;;;;;;5017187;28;20030;-77
2022/04/14 11:57:13;;;;;;;18.17;12.85;;;19.30;92.90;;;;;;5022548;28;20022;-77
2022/04/14 11:59:46;;;;;;;15.75;11.45;;;19.20;93.40;;;;;;5017003;28;20096;-76
2022/04/14 12:02:21;;;;;;;13.55;10.45;;;19.10;94.70;;;;;;5020797;28;20029;-77
2022/04/14 12:04:49;;;;;;;13.18;9.93;;;19.00;94.80;;;;;;5018505;28;20045;-77
2022/04/14 12:07:16;;;;;;;14.32;12.68;;;19.10;97.60;;;;;;5016347;28;20124;-75
2022/04/14 12:09:42;;;;;;;16.63;13.48;;;19.20;94.60;;;;;;5014554;28;20481;-78
2022/04/14 12:12:30;;;;;;;15.90;12.50;;;19.70;93.60;;;;;;5015329;28;20079;-78
2022/04/14 12:14:57;;;;;;;16.40;10.85;;;20.60;91.80;;;;;;5014902;28;20420;-76
2022/04/14 12:17:24;;;;;;;11.02;8.25;;;21.20;84.70;;;;;;5014946;28;20366;-76
2022/04/14 12:19:58;;;;;;;11.15;8.07;;;21.70;82.50;;;;;;5014671;28;20025;-77
2022/04/14 12:22:28;;;;;;;8.98;7.28;;;22.40;79.60;;;;;;5013177;28;20033;-78
2022/04/14 12:24:55;;;;;;;11.50;7.43;;;23.00;77.70;;;;;;5013358;28;20056;-77
2022/04/14 12:27:27;;;;;;;8.02;6.32;;;23.50;76.70;;;;;;5014222;28;20022;-78
2022/04/14 12:29:54;;;;;;;5.57;4.53;;;23.60;69.40;;;;;;5014840;28;20026;-76
2022/04/14 12:32:27;;;;;;;7.72;4.68;;;23.10;68.80;;;;;;5013809;28;20061;-77
2022/04/14 12:34:53;;;;;;;6.43;4.82;;;21.90;70.10;;;;;;5017218;28;20037;-78
2022/04/14 12:37:19;;;;;;;7.18;5.68;;;20.90;71.50;;;;;;5018197;28;20160;-76